Time;durP1;ratioP1;P1;durP2;ratioP2;P2;SDS_P1;SDS_P2;PMS_P1;PMS_P2;Temp;Humidity;BMP_temperature;BMP_pressure;BME280_temperature;BME280_humidity;BME280_pressure;Samples;Min_cycle;Max_cycle;Signal;HPM_P1;HPM_P2
2023/07/12 00:02:17;;;;;;;5.50;1.53;;;;;;;21.54;100.00;100768.09;5210685;28;20034;-67
2023/07/12 00:04:48;;;;;;;3.70;1.53;;;;;;;21.48;100.00;100770.75;5212092;28;20048;-68
2023/07/12 00:07:21;;;;;;;2.73;1.30;;;;;;;21.48;100.00;100771.59;5211089;28;20061;-67
2023/07/12 00:09:52;;;;;;;4.47;1.75;;;;;;;21.38;100.00;100771.16;5211693;28;20030;-68
2023/07/12 00:12:24;;;;;;;5.00;1.70;;;;;;;21.30;100.00;100768.66;5210622;28;20400;-68
2023/07/12 00:14:55;;;;;;;4.20;1.83;;;;;;;21.37;100.00;100785.53;5209039;28;20026;-67
2023/07/12 00:17:27;;;;;;;3.00;1.67;;;;;;;21.36;100.00;100799.84;5209354;28;20079;-66
2023/07/12 00:19:58;;;;;;;3.20;1.60;;;;;;;21.41;100.00;100815.25;5210662;28;20026;-68
2023/07/12 00:22:29;;;;;;;4.17;2.00;;;;;;;21.32;100.00;100820.72;5211590;28;20529;-68
2023/07/12 00:25:00;;;;;;;3.57;2.00;;;;;;;21.28;100.00;100822.16;5209990;28;20033;-69
2023/07/12 00:27:32;;;;;;;5.40;1.80;;;;;;;21.23;100.00;100821.13;5210443;28;20026;-67
2023/07/12 00:30:13;;;;;;;3.97;2.00;;;;;;;21.39;100.00;100818.13;5210352;28;20037;-68
2023/07/12 00:32:48;;;;;;;4.55;1.90;;;;;;;21.17;100.00;100830.72;5210015;28;20422;-68
2023/07/12 00:35:23;;;;;;;4.30;2.00;;;;;;;21.06;100.00;100831.31;5208614;28;20426;-67
2023/07/12 00:37:57;;;;;;;3.55;2.10;;;;;;;21.02;100.00;100841.53;5210524;28;20029;-68
2023/07/12 00:40:46;;;;;;;4.65;2.20;;;;;;;21.26;100.00;100847.38;5209512;28;20030;-68
2023/07/12 00:43:24;;;;;;;4.47;1.85;;;;;;;21.10;100.00;100851.19;5211040;28;20040;-66
2023/07/12 00:45:59;;;;;;;4.78;2.33;;;;;;;21.03;100.00;100848.53;5211006;28;20032;-67
2023/07/12 00:48:30;;;;;;;5.10;2.05;;;;;;;20.97;100.00;100854.63;5210024;28;20037;-68
2023/07/12 00:51:38;;;;;;;5.50;2.07;;;;;;;21.33;100.00;100853.59;5209813;28;20447;-67
2023/07/12 00:54:16;;;;;;;3.92;1.95;;;;;;;21.07;100.00;100857.75;5209801;28;20030;-66
2023/07/12 00:56:47;;;;;;;5.82;2.63;;;;;;;20.85;100.00;100862.38;5209875;28;20361;-68
2023/07/12 00:59:26;;;;;;;5.27;2.90;;;;;;;20.95;100.00;100859.34;5210293;28;20037;-70
2023/07/12 01:02:02;;;;;;;5.53;2.53;;;;;;;20.78;100.00;100874.00;5209629;28;20064;-67
2023/07/12 01:04:40;;;;;;;5.00;2.65;;;;;;;20.93;100.00;100884.53;5209915;28;20040;-68
2023/07/12 01:07:13;;;;;;;3.97;2.63;;;;;;;20.78;100.00;100882.81;5210570;28;20068;-68
2023/07/12 01:09:45;;;;;;;;;;;;;;;21.58;100.00;100899.16;5209293;28;20037;-68
2023/07/12 01:12:16;;;;;;;5.15;2.33;;;;;;;20.78;100.00;100895.31;5208859;28;19921;-69
2023/07/12 01:14:47;;;;;;;5.93;2.67;;;;;;;20.76;100.00;100825.44;5208925;28;20029;-69
2023/07/12 01:17:20;;;;;;;5.33;2.60;;;;;;;20.62;100.00;100843.19;5208570;28;20467;-68
2023/07/12 01:19:51;;;;;;;4.70;2.72;;;;;;;20.49;100.00;100840.41;5209883;28;20026;-67
2023/07/12 01:22:22;;;;;;;5.40;2.80;;;;;;;20.56;100.00;100834.13;5210169;28;20084;-66
2023/07/12 01:24:54;;;;;;;6.77;2.97;;;;;;;20.47;100.00;100848.59;5210053;28;20143;-69
2023/07/12 01:27:25;;;;;;;7.63;3.07;;;;;;;20.37;100.00;100842.78;5208835;28;20095;-66
2023/07/12 01:29:57;;;;;;;6.03;2.87;;;;;;;20.36;100.00;100855.28;5209058;28;20067;-66
2023/07/12 01:32:30;;;;;;;8.27;3.50;;;;;;;20.30;100.00;100847.22;5208168;28;20048;-68
2023/07/12 01:35:02;;;;;;;6.57;3.10;;;;;;;20.21;100.00;100838.59;5209230;28;20060;-67
2023/07/12 01:37:33;;;;;;;11.80;2.73;;;;;;;20.08;100.00;100839.31;5209775;28;20116;-68
2023/07/12 01:40:08;;;;;;;6.83;3.07;;;;;;;20.05;100.00;100858.31;5209566;28;20033;-66
2023/07/12 01:42:39;;;;;;;5.95;3.10;;;;;;;19.90;100.00;100846.94;5209693;28;20030;-66
2023/07/12 01:45:10;;;;;;;5.33;3.10;;;;;;;19.96;100.00;100824.88;5209021;28;20018;-68
2023/07/12 01:47:43;;;;;;;4.93;2.70;;;;;;;19.97;100.00;100807.13;5208921;28;20033;-68
2023/07/12 01:50:14;;;;;;;4.18;2.58;;;;;;;19.98;100.00;100798.13;5209100;28;20034;-66
2023/07/12 01:52:45;;;;;;;5.33;2.70;;;;;;;19.98;100.00;100811.41;5209008;28;20034;-68
2023/07/12 01:55:16;;;;;;;8.03;2.90;;;;;;;19.99;100.00;100819.19;5210613;28;20038;-67
2023/07/12 01:57:48;;;;;;;5.85;3.15;;;;;;;19.93;100.00;100809.34;5209214;28;20115;-66
2023/07/12 02:00:19;;;;;;;6.63;2.87;;;;;;;19.98;100.00;100806.09;5210125;28;20055;-66
2023/07/12 02:02:51;;;;;;;6.00;2.97;;;;;;;19.85;100.00;100806.78;5207468;28;20083;-66
2023/07/12 02:05:22;;;;;;;5.87;3.07;;;;;;;19.79;100.00;100808.38;5209685;28;20048;-68
2023/07/12 02:07:56;;;;;;;5.43;2.93;;;;;;;19.77;100.00;100798.94;5209710;28;20068;-66
2023/07/12 02:10:27;;;;;;;6.20;3.45;;;;;;;19.73;100.00;100766.59;5208950;28;20033;-68
2023/07/12 02:12:58;;;;;;;5.47;3.17;;;;;;;19.68;100.00;100766.38;5209915;28;20034;-69
2023/07/12 02:15:30;;;;;;;4.67;3.10;;;;;;;19.57;100.00;100839.44;5208656;28;20356;-66
2023/07/12 02:18:02;;;;;;;7.83;3.63;;;;;;;19.51;100.00;100848.19;5209848;28;20120;-69
2023/07/12 02:20:33;;;;;;;9.37;3.80;;;;;;;19.61;100.00;100853.97;5207617;28;20030;-66
2023/07/12 02:23:05;;;;;;;7.07;3.53;;;;;;;19.52;100.00;100860.44;5210453;28;20129;-66
2023/07/12 02:25:37;;;;;;;6.73;2.97;;;;;;;19.54;100.00;100853.09;5209375;28;20427;-66
2023/07/12 02:28:08;;;;;;;5.83;2.97;;;;;;;19.29;100.00;100849.16;5209574;28;20084;-68
2023/07/12 02:30:42;;;;;;;5.43;2.90;;;;;;;19.29;100.00;100810.13;5209550;28;20133;-65
2023/07/12 02:33:13;;;;;;;3.63;2.40;;;;;;;19.18;100.00;100827.38;5208405;28;20104;-68
2023/07/12 02:35:45;;;;;;;4.40;2.63;;;;;;;19.27;100.00;100827.25;5209212;28;20161;-66
2023/07/12 02:38:16;;;;;;;6.23;2.67;;;;;;;19.22;100.00;100832.31;5208113;28;20037;-68
2023/07/12 02:40:47;;;;;;;6.53;3.03;;;;;;;19.25;100.00;100818.66;5209359;28;20040;-66
2023/07/12 02:43:18;;;;;;;4.13;2.83;;;;;;;19.22;100.00;100843.75;5210187;28;20088;-67
2023/07/12 02:45:50;;;;;;;5.60;2.50;;;;;;;19.22;100.00;100835.78;5211547;28;20130;-66
2023/07/12 02:48:21;;;;;;;3.97;2.30;;;;;;;19.14;100.00;100828.75;5212485;28;20037;-67
2023/07/12 02:50:52;;;;;;;5.07;2.25;;;;;;;19.05;100.00;100827.19;5211313;28;20045;-69
2023/07/12 02:53:23;;;;;;;4.80;2.27;;;;;;;19.10;100.00;100834.63;5211188;28;20399;-66
2023/07/12 02:55:55;;;;;;;5.27;2.20;;;;;;;19.02;100.00;100834.75;5212444;28;20034;-66
2023/07/12 02:58:26;;;;;;;5.00;2.20;;;;;;;18.94;100.00;100833.84;5211523;28;20030;-66
2023/07/12 03:00:58;;;;;;;5.43;2.63;;;;;;;18.87;100.00;100830.25;5210359;28;20049;-68
2023/07/12 03:03:29;;;;;;;5.97;2.27;;;;;;;18.77;100.00;100831.56;5212416;28;20479;-65
2023/07/12 03:06:09;;;;;;;6.30;2.28;;;;;;;18.98;100.00;100842.25;5210771;28;20033;-65
2023/07/12 03:08:41;;;;;;;4.47;1.88;;;;;;;18.85;100.00;100840.22;5211196;28;20038;-66
2023/07/12 03:11:13;;;;;;;3.92;2.08;;;;;;;18.96;100.00;100849.56;5210353;28;20041;-67
2023/07/12 03:13:46;;;;;;;5.28;1.92;;;;;;;18.92;100.00;100843.81;5210622;28;20026;-66
2023/07/12 03:16:17;;;;;;;3.78;1.90;;;;;;;18.94;100.00;100852.41;5212811;28;20037;-65
2023/07/12 03:18:49;;;;;;;4.65;2.15;;;;;;;18.84;100.00;100851.88;5210907;28;20057;-66
2023/07/12 03:21:20;;;;;;;4.97;2.10;;;;;;;18.83;100.00;100852.88;5211581;28;20053;-68
2023/07/12 03:23:51;;;;;;;3.80;2.10;;;;;;;18.82;100.00;100847.75;5212069;28;20033;-66
2023/07/12 03:26:23;;;;;;;3.83;1.90;;;;;;;18.82;100.00;100848.56;5209908;28;20882;-65
2023/07/12 03:28:56;;;;;;;6.60;2.30;;;;;;;18.76;100.00;100859.94;5210892;28;20021;-66
2023/07/12 03:31:31;;;;;;;6.38;1.98;;;;;;;18.74;100.00;100855.78;5211497;28;20040;-65
2023/07/12 03:34:02;;;;;;;3.63;1.80;;;;;;;18.64;100.00;100867.50;5212235;28;20071;-65
2023/07/12 03:36:35;;;;;;;3.80;2.00;;;;;;;18.66;100.00;100862.81;5211402;28;20033;-67
2023/07/12 03:39:08;;;;;;;3.63;1.80;;;;;;;18.63;100.00;100879.09;5212255;28;20409;-65
2023/07/12 03:41:39;;;;;;;3.92;2.03;;;;;;;18.64;100.00;100874.63;5211002;28;20041;-66
2023/07/12 03:44:10;;;;;;;5.33;2.20;;;;;;;18.51;100.00;100883.19;5211509;28;20388;-66
2023/07/12 03:46:41;;;;;;;8.50;3.38;;;;;;;18.50;100.00;100878.09;5211809;28;20388;-65
2023/07/12 03:49:13;;;;;;;6.23;2.70;;;;;;;18.51;100.00;100877.06;5210542;28;20492;-65
2023/07/12 03:51:44;;;;;;;4.57;2.30;;;;;;;18.54;100.00;100879.38;5209061;28;20029;-68
2023/07/12 03:54:15;;;;;;;7.78;2.85;;;;;;;18.56;100.00;100880.84;5209202;28;20621;-66
2023/07/12 03:56:47;;;;;;;4.72;2.55;;;;;;;18.56;100.00;100875.53;5210934;28;20336;-67
2023/07/12 03:59:18;;;;;;;4.63;2.47;;;;;;;18.51;100.00;100885.84;5211469;28;20405;-66
2023/07/12 04:01:50;;;;;;;3.83;2.28;;;;;;;18.51;100.00;100883.19;5210622;28;20116;-68
2023/07/12 04:04:22;;;;;;;4.93;2.72;;;;;;;18.54;100.00;100888.16;5208912;28;20034;-65
2023/07/12 04:06:53;;;;;;;4.43;2.63;;;;;;;18.37;100.00;100899.91;5210053;28;20029;-67
2023/07/12 04:09:24;;;;;;;6.03;3.15;;;;;;;18.40;100.00;100888.94;5211174;28;20399;-67
2023/07/12 04:11:55;;;;;;;5.80;2.65;;;;;;;18.40;100.00;100894.25;5210848;28;20483;-66
2023/07/12 04:14:26;;;;;;;7.20;3.22;;;;;;;18.40;100.00;100891.59;5210586;28;20034;-66
2023/07/12 04:16:58;;;;;;;4.63;2.60;;;;;;;18.34;100.00;100893.16;5209329;28;20065;-68
2023/07/12 04:19:29;;;;;;;5.53;2.80;;;;;;;18.35;100.00;100893.97;5209998;28;20030;-67
2023/07/12 04:22:00;;;;;;;5.80;2.83;;;;;;;18.38;100.00;100897.09;5210250;28;20029;-67
2023/07/12 04:24:31;;;;;;;7.43;3.03;;;;;;;18.36;100.00;100900.91;5209654;28;20054;-66
2023/07/12 04:27:03;;;;;;;6.27;3.23;;;;;;;18.35;100.00;100900.09;5210108;28;20030;-66
2023/07/12 04:29:35;;;;;;;5.72;2.70;;;;;;;18.40;100.00;100899.56;5209415;28;20021;-66
2023/07/12 04:32:06;;;;;;;7.43;3.25;;;;;;;18.42;100.00;100890.44;5210295;28;20506;-66
2023/07/12 04:34:38;;;;;;;6.80;2.70;;;;;;;18.37;100.00;100891.94;5210297;28;20065;-66
2023/07/12 04:37:09;;;;;;;7.38;3.03;;;;;;;18.44;100.00;100895.53;5209996;28;20034;-67
2023/07/12 04:39:41;;;;;;;5.60;2.45;;;;;;;18.48;100.00;100900.28;5210813;28;20650;-67
2023/07/12 04:42:12;;;;;;;6.28;2.83;;;;;;;18.53;100.00;100898.97;5208789;28;20032;-65
2023/07/12 04:44:43;;;;;;;4.78;2.17;;;;;;;18.47;100.00;100898.66;5210269;28;20029;-67
2023/07/12 04:47:16;;;;;;;4.63;1.98;;;;;;;18.43;100.00;100892.06;5209277;28;20021;-66
2023/07/12 04:49:47;;;;;;;6.43;2.60;;;;;;;18.41;100.00;100895.88;5209159;28;20026;-66
2023/07/12 04:52:18;;;;;;;5.60;2.47;;;;;;;18.45;100.00;100906.00;5209124;28;20119;-67
2023/07/12 04:54:56;;;;;;;8.38;2.35;;;;;;;18.58;100.00;100893.91;5208781;28;20064;-66
2023/07/12 04:57:27;;;;;;;6.03;2.13;;;;;;;18.49;100.00;100898.50;5209536;28;20491;-65
2023/07/12 04:59:58;;;;;;;4.22;2.33;;;;;;;18.48;100.00;100897.63;5206665;28;20054;-66
2023/07/12 05:02:29;;;;;;;6.93;2.63;;;;;;;18.54;100.00;100906.72;5210312;28;20036;-66
2023/07/12 05:05:01;;;;;;;4.38;2.33;;;;;;;18.50;100.00;100899.31;5209538;28;20467;-66
2023/07/12 05:07:32;;;;;;;6.63;2.75;;;;;;;18.52;100.00;100899.94;5209329;28;20030;-66
2023/07/12 05:10:04;;;;;;;5.28;2.30;;;;;;;18.52;100.00;100905.25;5208511;28;20474;-68
2023/07/12 05:12:36;;;;;;;6.90;2.60;;;;;;;18.54;100.00;100917.34;5210935;28;21217;-65
2023/07/12 05:15:10;;;;;;;6.90;2.50;;;;;;;18.62;100.00;100919.91;5209854;28;20026;-66
2023/07/12 05:17:41;;;;;;;4.57;2.00;;;;;;;18.60;100.00;100913.97;5209460;28;20042;-65
2023/07/12 05:20:13;;;;;;;6.68;2.63;;;;;;;18.74;100.00;100924.81;5209154;28;20446;-66
2023/07/12 05:22:47;;;;;;;6.22;2.97;;;;;;;18.74;100.00;100924.81;5209396;28;20488;-67
2023/07/12 05:25:18;;;;;;;8.50;2.75;;;;;;;18.73;100.00;100923.16;5209833;28;20041;-67
2023/07/12 05:27:49;;;;;;;5.65;2.22;;;;;;;18.86;100.00;100937.44;5210427;28;20034;-66
2023/07/12 05:30:21;;;;;;;5.65;2.00;;;;;;;18.88;100.00;100937.28;5210683;28;20157;-67
2023/07/12 05:32:52;;;;;;;7.65;2.85;;;;;;;18.85;100.00;100932.31;5209881;28;20030;-67
2023/07/12 05:35:23;;;;;;;6.88;3.03;;;;;;;18.82;100.00;100927.38;5209307;28;20388;-66
2023/07/12 05:37:55;;;;;;;5.03;2.75;;;;;;;18.73;100.00;100928.47;5210640;28;20069;-67
2023/07/12 05:40:27;;;;;;;10.07;2.97;;;;;;;18.80;100.00;100935.53;5208451;28;20038;-67
2023/07/12 05:42:58;;;;;;;7.97;2.35;;;;;;;18.71;100.00;100933.94;5208770;28;20030;-66
2023/07/12 05:45:30;;;;;;;6.82;2.70;;;;;;;18.73;100.00;100933.78;5208543;28;20033;-65
2023/07/12 05:48:01;;;;;;;8.80;2.92;;;;;;;18.83;100.00;100939.66;5208001;28;20105;-67
2023/07/12 05:50:32;;;;;;;8.60;2.60;;;;;;;18.81;100.00;100937.16;5209551;28;20037;-66
2023/07/12 05:53:03;;;;;;;6.33;2.80;;;;;;;18.82;100.00;100936.16;5208097;28;20037;-65
2023/07/12 05:55:35;;;;;;;8.05;2.50;;;;;;;18.81;100.00;100933.69;5208283;28;20038;-66
2023/07/12 05:58:06;;;;;;;6.38;2.90;;;;;;;18.76;100.00;100933.44;5210074;28;20025;-66
2023/07/12 06:00:38;;;;;;;6.20;2.63;;;;;;;18.83;100.00;100940.47;5210827;28;20053;-67
2023/07/12 06:03:10;;;;;;;8.60;3.30;;;;;;;18.82;100.00;100957.38;5209636;28;20041;-66
2023/07/12 06:05:44;;;;;;;7.20;2.92;;;;;;;18.80;100.00;100951.44;5209276;28;20055;-67
2023/07/12 06:08:16;;;;;;;5.93;2.38;;;;;;;18.91;100.00;100952.84;5211439;28;20022;-66
2023/07/12 06:10:47;;;;;;;5.63;2.63;;;;;;;19.05;100.00;100952.00;5208888;28;20088;-66
2023/07/12 06:13:19;;;;;;;6.40;2.58;;;;;;;19.12;100.00;100952.09;5210387;28;20028;-65
2023/07/12 06:15:50;;;;;;;6.80;2.80;;;;;;;19.22;100.00;100959.81;5210391;28;20080;-66
2023/07/12 06:18:21;;;;;;;9.90;2.95;;;;;;;19.37;100.00;100957.97;5209632;28;20103;-67
2023/07/12 06:20:57;;;;;;;7.83;3.00;;;;;;;19.45;100.00;100957.84;5195180;28;20696;-65
2023/07/12 06:23:29;;;;;;;7.22;2.58;;;;;;;19.41;100.00;100949.44;5211130;28;20376;-65
2023/07/12 06:26:01;;;;;;;6.15;2.60;;;;;;;19.58;100.00;100957.19;5212496;28;20464;-67
2023/07/12 06:28:33;;;;;;;7.43;2.58;;;;;;;19.62;100.00;100962.00;5211384;28;20037;-68
2023/07/12 06:31:05;;;;;;;8.20;3.13;;;;;;;19.84;100.00;100970.81;5211072;28;20403;-66
2023/07/12 06:33:38;;;;;;;6.72;2.60;;;;;;;19.83;100.00;100968.34;5209999;28;20649;-66
2023/07/12 06:36:09;;;;;;;6.80;3.00;;;;;;;19.84;100.00;100984.09;5211925;28;20065;-66
2023/07/12 06:38:41;;;;;;;10.17;2.83;;;;;;;19.92;100.00;100989.28;5212233;28;20105;-66
2023/07/12 06:41:12;;;;;;;6.93;2.60;;;;;;;19.89;100.00;100991.53;5211331;28;20562;-67
2023/07/12 06:43:43;;;;;;;7.47;2.57;;;;;;;19.95;100.00;100996.09;5211779;28;20508;-65
2023/07/12 06:46:15;;;;;;;5.65;2.47;;;;;;;20.01;100.00;100995.34;5210004;28;20096;-66
2023/07/12 06:48:46;;;;;;;5.97;2.70;;;;;;;19.97;100.00;100994.06;5209764;28;20395;-66
2023/07/12 06:51:18;;;;;;;6.10;2.40;;;;;;;20.04;100.00;101000.28;5210549;28;20040;-65
2023/07/12 06:53:49;;;;;;;9.37;2.83;;;;;;;20.20;100.00;101015.19;5211327;28;20088;-66
2023/07/12 06:56:20;;;;;;;6.75;2.33;;;;;;;20.14;100.00;101010.59;5211576;28;20026;-65
2023/07/12 06:58:51;;;;;;;8.00;2.47;;;;;;;20.25;100.00;101010.13;5207381;28;20026;-67
2023/07/12 07:01:23;;;;;;;6.83;2.40;;;;;;;20.23;100.00;101016.63;5207632;28;20053;-66
2023/07/12 07:03:54;;;;;;;8.37;2.33;;;;;;;20.17;100.00;101016.38;5208362;28;20599;-66
2023/07/12 07:06:25;;;;;;;10.90;3.47;;;;;;;20.23;100.00;101029.94;5211362;28;20045;-67
2023/07/12 07:08:56;;;;;;;5.67;2.20;;;;;;;20.36;100.00;101030.06;5209706;28;20025;-66
2023/07/12 07:11:28;;;;;;;5.23;2.70;;;;;;;20.39;100.00;101027.84;5208951;28;20504;-67
2023/07/12 07:13:59;;;;;;;12.05;2.78;;;;;;;20.59;100.00;101027.25;5210570;28;20442;-66
2023/07/12 07:16:30;;;;;;;11.77;2.30;;;;;;;20.63;100.00;101024.00;5211619;28;20087;-65
2023/07/12 07:19:02;;;;;;;7.93;2.40;;;;;;;20.72;100.00;101022.06;5210134;28;20025;-66
2023/07/12 07:21:33;;;;;;;7.73;2.50;;;;;;;20.73;100.00;101023.69;5210072;28;20092;-66
2023/07/12 07:24:05;;;;;;;7.30;2.47;;;;;;;20.78;100.00;101034.56;5209009;28;20072;-66
2023/07/12 07:26:36;;;;;;;11.53;2.27;;;;;;;20.85;100.00;101031.97;5210267;28;20113;-66
2023/07/12 07:29:07;;;;;;;10.33;2.57;;;;;;;20.82;100.00;101048.34;5210688;28;20092;-66
2023/07/12 07:31:38;;;;;;;6.97;2.60;;;;;;;20.80;100.00;101045.88;5211112;28;20112;-65
2023/07/12 07:34:10;;;;;;;7.30;2.37;;;;;;;20.74;100.00;101056.47;5210662;28;20032;-67
2023/07/12 07:36:42;;;;;;;8.33;3.00;;;;;;;20.81;100.00;101060.00;5206554;28;20057;-66
2023/07/12 07:39:13;;;;;;;5.83;2.57;;;;;;;20.90;100.00;101056.19;5209896;28;20108;-67
2023/07/12 07:41:44;;;;;;;6.40;2.30;;;;;;;21.08;100.00;101056.53;5210214;28;20289;-66
2023/07/12 07:44:16;;;;;;;6.47;2.20;;;;;;;21.12;100.00;101057.78;5209393;28;20088;-67
2023/07/12 07:46:47;;;;;;;5.57;2.30;;;;;;;21.33;100.00;101056.94;5208998;28;20085;-66
2023/07/12 07:49:19;;;;;;;5.43;2.50;;;;;;;21.47;100.00;101055.16;5208346;28;20119;-67
2023/07/12 07:51:50;;;;;;;6.67;2.83;;;;;;;21.72;100.00;101049.34;5208065;28;20479;-66
2023/07/12 07:54:21;;;;;;;6.83;2.33;;;;;;;21.60;100.00;101062.41;5209569;28;20036;-66
2023/07/12 07:56:52;;;;;;;6.97;2.43;;;;;;;21.62;100.00;101057.69;5208780;28;20037;-67
2023/07/12 07:59:24;;;;;;;5.90;2.23;;;;;;;21.65;100.00;101085.81;5210206;28;20045;-66
2023/07/12 08:01:55;;;;;;;6.30;2.60;;;;;;;21.61;100.00;101075.53;5209393;28;20033;-67
2023/07/12 08:04:27;;;;;;;8.37;2.30;;;;;;;21.48;100.00;101077.31;5209234;28;20028;-66
2023/07/12 08:06:58;;;;;;;6.30;2.57;;;;;;;21.51;100.00;101080.41;5209252;28;20048;-66
2023/07/12 08:09:29;;;;;;;6.83;2.70;;;;;;;21.49;100.00;101077.13;5206449;28;20022;-66
2023/07/12 08:12:01;;;;;;;8.27;2.83;;;;;;;21.53;100.00;101083.72;5209558;28;20034;-66
2023/07/12 08:14:32;;;;;;;7.73;2.50;;;;;;;21.44;100.00;101087.56;5208335;28;20030;-66
2023/07/12 08:17:04;;;;;;;4.83;2.13;;;;;;;21.46;100.00;101087.34;5208126;28;20159;-66
2023/07/12 08:19:35;;;;;;;8.37;2.60;;;;;;;21.43;100.00;101080.56;5208423;28;20156;-66
2023/07/12 08:22:06;;;;;;;6.00;2.33;;;;;;;21.43;100.00;101088.56;5207174;28;20403;-65
2023/07/12 08:24:37;;;;;;;6.70;2.13;;;;;;;21.50;100.00;101097.41;5208828;28;20039;-67
2023/07/12 08:27:10;;;;;;;8.73;2.47;;;;;;;21.47;100.00;101099.66;5211444;28;20036;-67
2023/07/12 08:29:43;;;;;;;7.88;2.53;;;;;;;21.56;100.00;101098.50;5208458;28;20029;-66
2023/07/12 08:32:14;;;;;;;8.77;2.92;;;;;;;21.56;100.00;101101.16;5208760;28;20124;-66
2023/07/12 08:34:46;;;;;;;7.47;2.50;;;;;;;21.65;100.00;101099.16;5208810;28;20033;-66
2023/07/12 08:37:17;;;;;;;8.57;3.33;;;;;;;21.70;100.00;101097.53;5209042;28;20026;-67
2023/07/12 08:39:48;;;;;;;5.00;2.63;;;;;;;21.89;100.00;101106.66;5209332;28;20514;-66
2023/07/12 08:42:28;;;;;;;7.47;2.53;;;;;;;21.99;100.00;101104.44;5207234;28;20454;-66
2023/07/12 08:45:00;;;;;;;7.28;3.10;;;;;;;21.86;100.00;101107.06;5207591;28;20092;-66
2023/07/12 08:47:38;;;;;;;;;;;;;;;22.64;100.00;101102.19;5207793;28;20018;-67
2023/07/12 08:50:15;;;;;;;6.65;2.45;;;;;;;22.08;100.00;101105.09;5208045;28;19921;-69
2023/07/12 08:52:46;;;;;;;6.80;2.63;;;;;;;21.81;100.00;101112.16;5209062;28;20187;-67
2023/07/12 08:55:19;;;;;;;6.10;2.40;;;;;;;21.83;100.00;101115.47;5207617;28;20037;-67
2023/07/12 08:58:12;;;;;;;8.85;2.50;;;;;;;22.02;100.00;101114.72;5207976;28;20108;-66
2023/07/12 09:00:45;;;;;;;7.25;2.70;;;;;;;22.02;100.00;101108.56;5206381;28;20107;-66
2023/07/12 09:03:16;;;;;;;11.15;2.53;;;;;;;21.99;100.00;101124.97;5208098;28;20061;-65
2023/07/12 09:05:48;;;;;;;6.13;2.53;;;;;;;22.01;100.00;101118.44;5208031;28;20104;-66
2023/07/12 09:08:27;;;;;;;7.80;2.87;;;;;;;22.09;97.93;101102.25;5205957;28;20146;-67
2023/07/12 09:10:58;;;;;;;5.63;2.60;;;;;;;22.18;100.00;101110.91;5208383;28;20516;-67
2023/07/12 09:13:35;;;;;;;6.77;2.63;;;;;;;22.41;100.00;101115.09;5205793;28;20120;-67
2023/07/12 09:16:33;;;;;;;7.45;2.40;;;;;;;22.61;97.60;101107.94;5207453;28;20037;-66
2023/07/12 09:19:20;;;;;;;6.43;2.10;;;;;;;22.54;97.08;101109.78;5205809;28;20025;-66
2023/07/12 09:21:58;;;;;;;6.53;2.33;;;;;;;22.53;97.44;101102.78;5207152;28;20498;-67
2023/07/12 09:24:31;;;;;;;12.02;3.10;;;;;;;22.65;97.27;101092.34;5206791;28;20076;-66
2023/07/12 09:27:14;;;;;;;8.50;3.05;;;;;;;23.00;88.79;101104.53;5205258;28;20022;-66
2023/07/12 09:29:45;;;;;;;;;;;;;;;23.63;87.52;101101.34;5206131;28;20041;-66
2023/07/12 09:32:19;;;;;;;7.00;2.92;;;;;;;22.77;88.19;101106.75;5204716;28;20260;-67
2023/07/12 09:34:54;;;;;;;8.15;3.20;;;;;;;22.81;92.12;101097.31;5205752;28;20137;-67
2023/07/12 09:37:25;;;;;;;6.65;3.05;;;;;;;22.86;88.90;101099.34;5207126;28;20121;-66
2023/07/12 09:40:00;;;;;;;6.60;2.60;;;;;;;22.92;92.04;101098.53;5204603;28;20080;-65
2023/07/12 09:42:31;;;;;;;7.47;2.90;;;;;;;22.90;91.11;101096.06;5208356;28;20026;-68
2023/07/12 09:45:05;;;;;;;7.43;2.60;;;;;;;22.79;90.22;101096.66;5189446;28;20514;-67
2023/07/12 09:47:50;;;;;;;8.73;2.53;;;;;;;23.20;92.42;101082.31;5207592;28;20357;-66
2023/07/12 09:50:36;;;;;;;5.78;1.90;;;;;;;23.68;88.17;101090.88;5205796;28;20049;-67
2023/07/12 09:53:14;;;;;;;6.38;2.38;;;;;;;23.85;83.07;101087.72;5208190;28;20036;-66
2023/07/12 09:56:04;;;;;;;7.25;2.20;;;;;;;23.90;80.62;101082.56;5211591;28;20034;-66
2023/07/12 09:58:55;;;;;;;6.45;2.28;;;;;;;24.07;78.80;101085.59;5207695;28;20249;-67
2023/07/12 10:01:56;;;;;;;6.20;2.03;;;;;;;23.80;78.88;101075.00;5175830;28;1032871;-68
2023/07/12 10:04:41;;;;;;;7.85;2.40;;;;;;;24.06;81.02;101079.41;5211074;28;20461;-68
2023/07/12 10:07:51;;;;;;;6.40;1.90;;;;;;;24.34;77.21;101064.84;5213092;28;20108;-67
2023/07/12 10:10:34;;;;;;;5.75;1.67;;;;;;;24.40;76.36;101072.06;5210803;28;20407;-68
2023/07/12 10:13:20;;;;;;;5.00;2.20;;;;;;;24.46;74.20;101074.66;5211883;28;20033;-67
2023/07/12 10:15:51;;;;;;;4.78;1.83;;;;;;;24.23;76.54;101075.19;5212031;28;20028;-67
2023/07/12 10:18:28;;;;;;;8.33;2.80;;;;;;;24.38;74.73;101071.41;5211280;28;20491;-67
2023/07/12 10:21:00;;;;;;;11.55;2.88;;;;;;;24.23;73.05;101074.38;5212042;28;20033;-67
2023/07/12 10:23:41;;;;;;;5.60;1.70;;;;;;;24.45;72.69;101069.53;5210697;28;20026;-68
2023/07/12 10:26:15;;;;;;;7.70;2.00;;;;;;;24.64;71.54;101079.28;5212360;28;20774;-67
2023/07/12 10:29:03;;;;;;;8.35;2.58;;;;;;;24.91;70.89;101079.91;5210136;28;20288;-68
2023/07/12 10:31:55;;;;;;;6.22;2.30;;;;;;;24.83;69.98;101079.34;5209151;28;20026;-67
2023/07/12 10:34:41;;;;;;;4.78;1.95;;;;;;;25.00;72.65;101089.31;5212561;28;20061;-67
2023/07/12 10:37:24;;;;;;;5.10;1.85;;;;;;;25.00;70.30;101085.78;5208753;28;20037;-66
2023/07/12 10:39:55;;;;;;;;;;;;;;;25.88;68.14;101087.44;5208987;28;20096;-66
2023/07/12 10:42:39;;;;;;;7.30;2.27;;;;;;;25.66;68.41;101090.53;5209282;28;20264;-68
2023/07/12 10:45:20;;;;;;;5.07;1.80;;;;;;;25.65;66.24;101082.72;5211681;28;20034;-65
2023/07/12 10:47:54;;;;;;;6.95;2.10;;;;;;;25.71;66.43;101087.97;5209312;28;20026;-66
2023/07/12 10:50:35;;;;;;;9.48;2.33;;;;;;;25.73;61.28;101083.22;5210045;28;20033;-70
2023/07/12 10:53:21;;;;;;;5.65;1.67;;;;;;;25.73;66.80;101088.59;5210809;28;20111;-67
2023/07/12 10:56:07;;;;;;;6.60;2.00;;;;;;;25.96;66.94;101093.31;5209689;28;20029;-67
2023/07/12 10:58:48;;;;;;;7.82;1.80;;;;;;;25.86;66.82;101082.28;5211714;28;20559;-67
2023/07/12 11:01:40;;;;;;;12.40;2.63;;;;;;;26.14;61.09;101078.22;5210880;28;20234;-67
2023/07/12 11:04:35;;;;;;;8.80;2.33;;;;;;;26.28;60.42;101076.97;5209109;28;20065;-67
2023/07/12 11:07:07;;;;;;;7.13;1.95;;;;;;;25.86;55.47;101093.00;5201585;28;20107;-67
2023/07/12 11:09:45;;;;;;;5.73;2.23;;;;;;;25.69;57.78;101097.31;5211491;28;20033;-67
2023/07/12 11:12:29;;;;;;;5.82;1.77;;;;;;;25.23;58.95;101086.03;5210759;28;20056;-67
2023/07/12 11:15:03;;;;;;;5.18;2.00;;;;;;;25.55;62.56;101088.59;5210354;28;20041;-66
2023/07/12 11:17:59;;;;;;;5.90;1.73;;;;;;;26.04;63.20;101092.16;5210371;28;20041;-66
2023/07/12 11:20:56;;;;;;;8.07;1.60;;;;;;;26.26;57.88;101091.69;5210821;28;20034;-68
2023/07/12 11:23:48;;;;;;;6.68;1.85;;;;;;;26.66;60.66;101078.50;5210260;28;20602;-68
2023/07/12 11:26:30;;;;;;;6.20;2.00;;;;;;;26.81;54.70;101080.75;5209465;28;20049;-67
2023/07/12 11:29:29;;;;;;;5.70;2.00;;;;;;;27.19;51.96;101083.00;5210909;28;20553;-68
2023/07/12 11:32:24;;;;;;;5.57;1.85;;;;;;;26.68;52.18;101076.41;5210087;28;20029;-67
2023/07/12 11:35:01;;;;;;;6.43;1.90;;;;;;;26.45;53.90;101087.91;5211459;28;20029;-67
2023/07/12 11:37:54;;;;;;;5.72;1.77;;;;;;;26.59;55.55;101093.91;5209395;28;20026;-66
2023/07/12 11:40:30;;;;;;;5.40;1.60;;;;;;;26.49;53.99;101088.28;5211152;28;20033;-67
2023/07/12 11:43:24;;;;;;;5.65;1.63;;;;;;;27.16;53.59;101095.06;5208373;28;20029;-67
2023/07/12 11:45:57;;;;;;;4.82;1.77;;;;;;;27.16;50.73;101087.00;5209690;28;20605;-67
2023/07/12 11:48:32;;;;;;;7.85;1.60;;;;;;;27.38;47.54;101079.13;5210469;28;20041;-67
2023/07/12 11:51:08;;;;;;;6.95;1.65;;;;;;;27.40;46.48;101085.09;5210522;28;20025;-66
2023/07/12 11:53:50;;;;;;;5.43;1.60;;;;;;;27.67;47.70;101094.53;5212312;28;20416;-67